sensor_id;sensor_type;location;lat;lon;timestamp;pressure;altitude;pressure_sealevel;temperature;humidity
84932;BME280;75193;53.980;13.902;2024-02-26T00:01:42;100545.09;;;15.57;41.92
84932;BME280;75193;53.980;13.902;2024-02-26T00:04:13;100547.94;;;14.98;43.95
84932;BME280;75193;53.980;13.902;2024-02-26T00:06:43;100537.97;;;14.79;43.53
84932;BME280;75193;53.980;13.902;2024-02-26T00:09:09;100537.81;;;15.27;42.62
84932;BME280;75193;53.980;13.902;2024-02-26T00:11:38;100540.56;;;15.25;43.07
84932;BME280;75193;53.980;13.902;2024-02-26T00:14:10;100540.56;;;15.70;42.43
84932;BME280;75193;53.980;13.902;2024-02-26T00:16:35;100538.84;;;15.80;41.69
84932;BME280;75193;53.980;13.902;2024-02-26T00:19:01;100538.16;;;15.56;41.85
84932;BME280;75193;53.980;13.902;2024-02-26T00:21:27;100531.41;;;15.96;41.15
84932;BME280;75193;53.980;13.902;2024-02-26T00:23:53;100541.34;;;15.93;40.87
84932;BME280;75193;53.980;13.902;2024-02-26T00:26:18;100545.81;;;15.36;41.90
84932;BME280;75193;53.980;13.902;2024-02-26T00:28:44;100543.78;;;15.73;41.75
84932;BME280;75193;53.980;13.902;2024-02-26T00:31:13;100547.25;;;15.85;41.92
84932;BME280;75193;53.980;13.902;2024-02-26T00:33:38;100537.63;;;16.07;40.96
84932;BME280;75193;53.980;13.902;2024-02-26T00:36:04;100542.97;;;16.16;40.44
84932;BME280;75193;53.980;13.902;2024-02-26T00:38:30;100534.94;;;16.18;40.42
84932;BME280;75193;53.980;13.902;2024-02-26T00:40:55;100539.78;;;16.01;40.57
84932;BME280;75193;53.980;13.902;2024-02-26T00:43:21;100541.28;;;15.72;41.40
84932;BME280;75193;53.980;13.902;2024-02-26T00:45:46;100536.97;;;15.26;42.12
84932;BME280;75193;53.980;13.902;2024-02-26T00:48:12;100539.97;;;14.64;44.10
84932;BME280;75193;53.980;13.902;2024-02-26T00:50:39;100534.81;;;15.09;43.24
84932;BME280;75193;53.980;13.902;2024-02-26T00:53:08;100530.88;;;15.70;41.77
84932;BME280;75193;53.980;13.902;2024-02-26T00:55:33;100531.13;;;15.67;41.23
84932;BME280;75193;53.980;13.902;2024-02-26T00:57:59;100537.44;;;15.20;42.05
84932;BME280;75193;53.980;13.902;2024-02-26T01:00:24;100531.47;;;15.07;42.32
84932;BME280;75193;53.980;13.902;2024-02-26T01:02:50;100541.22;;;14.47;43.71
84932;BME280;75193;53.980;13.902;2024-02-26T01:05:15;100539.78;;;14.43;43.82
84932;BME280;75193;53.980;13.902;2024-02-26T01:07:42;100534.69;;;15.33;41.68
84932;BME280;75193;53.980;13.902;2024-02-26T01:10:08;100532.66;;;15.48;40.94
84932;BME280;75193;53.980;13.902;2024-02-26T01:12:34;100533.97;;;15.31;40.86
84932;BME280;75193;53.980;13.902;2024-02-26T01:15:01;100527.75;;;15.32;40.58
84932;BME280;75193;53.980;13.902;2024-02-26T01:17:26;100533.31;;;14.71;41.83
84932;BME280;75193;53.980;13.902;2024-02-26T01:19:52;100525.97;;;15.10;41.20
84932;BME280;75193;53.980;13.902;2024-02-26T01:22:18;100526.91;;;15.20;40.70
84932;BME280;75193;53.980;13.902;2024-02-26T01:24:44;100519.97;;;14.97;40.80
84932;BME280;75193;53.980;13.902;2024-02-26T01:27:09;100525.69;;;14.91;41.04
84932;BME280;75193;53.980;13.902;2024-02-26T01:29:35;100521.25;;;14.80;41.00
84932;BME280;75193;53.980;13.902;2024-02-26T01:32:00;100528.19;;;14.70;41.03
84932;BME280;75193;53.980;13.902;2024-02-26T01:34:26;100532.00;;;14.77;40.84
84932;BME280;75193;53.980;13.902;2024-02-26T01:36:51;100530.34;;;14.87;40.72
84932;BME280;75193;53.980;13.902;2024-02-26T01:39:17;100529.97;;;14.80;40.73
84932;BME280;75193;53.980;13.902;2024-02-26T01:41:43;100531.66;;;14.81;40.58
84932;BME280;75193;53.980;13.902;2024-02-26T01:44:12;100531.41;;;14.73;40.66
84932;BME280;75193;53.980;13.902;2024-02-26T01:46:37;100529.50;;;14.75;40.49
84932;BME280;75193;53.980;13.902;2024-02-26T01:49:03;100528.78;;;14.73;40.77
84932;BME280;75193;53.980;13.902;2024-02-26T01:51:30;100528.06;;;14.71;40.51
84932;BME280;75193;53.980;13.902;2024-02-26T01:53:57;100522.19;;;14.79;40.43
84932;BME280;75193;53.980;13.902;2024-02-26T01:56:23;100524.59;;;14.71;40.24
84932;BME280;75193;53.980;13.902;2024-02-26T01:58:53;100515.59;;;14.62;40.58
84932;BME280;75193;53.980;13.902;2024-02-26T02:01:21;100517.72;;;14.57;40.90
84932;BME280;75193;53.980;13.902;2024-02-26T02:03:48;100515.81;;;14.59;40.92
84932;BME280;75193;53.980;13.902;2024-02-26T02:06:14;100519.16;;;14.61;40.89
84932;BME280;75193;53.980;13.902;2024-02-26T02:08:39;100510.19;;;14.52;40.66
84932;BME280;75193;53.980;13.902;2024-02-26T02:11:06;100512.13;;;14.62;40.77
84932;BME280;75193;53.980;13.902;2024-02-26T02:13:32;100516.97;;;14.44;40.93
84932;BME280;75193;53.980;13.902;2024-02-26T02:15:57;100519.03;;;13.30;42.92
84932;BME280;75193;53.980;13.902;2024-02-26T02:18:23;100528.38;;;13.09;43.86
84932;BME280;75193;53.980;13.902;2024-02-26T02:20:48;100524.69;;;13.86;42.78
84932;BME280;75193;53.980;13.902;2024-02-26T02:23:14;100522.78;;;14.12;41.73
84932;BME280;75193;53.980;13.902;2024-02-26T02:25:39;100517.22;;;14.28;41.39
84932;BME280;75193;53.980;13.902;2024-02-26T02:28:05;100516.38;;;14.28;41.20
84932;BME280;75193;53.980;13.902;2024-02-26T02:30:31;100518.59;;;14.34;41.36
84932;BME280;75193;53.980;13.902;2024-02-26T02:32:58;100512.94;;;14.27;40.79
84932;BME280;75193;53.980;13.902;2024-02-26T02:35:24;100522.06;;;13.12;42.82
84932;BME280;75193;53.980;13.902;2024-02-26T02:37:52;100540.50;;;12.20;44.57
84932;BME280;75193;53.980;13.902;2024-02-26T02:40:17;100539.44;;;12.09;43.87
84932;BME280;75193;53.980;13.902;2024-02-26T02:42:43;100544.41;;;12.00;45.21
84932;BME280;75193;53.980;13.902;2024-02-26T02:45:09;100539.75;;;12.57;44.15
84932;BME280;75193;53.980;13.902;2024-02-26T02:47:37;100537.00;;;13.24;42.46
84932;BME280;75193;53.980;13.902;2024-02-26T02:50:03;100539.41;;;13.27;42.12
84932;BME280;75193;53.980;13.902;2024-02-26T02:52:29;100539.72;;;13.10;42.17
84932;BME280;75193;53.980;13.902;2024-02-26T02:54:55;100557.66;;;11.56;45.21
84932;BME280;75193;53.980;13.902;2024-02-26T02:57:20;100550.50;;;12.67;43.03
84932;BME280;75193;53.980;13.902;2024-02-26T02:59:46;100551.13;;;12.70;42.78
84932;BME280;75193;53.980;13.902;2024-02-26T03:02:12;100553.22;;;12.78;42.91
84932;BME280;75193;53.980;13.902;2024-02-26T03:04:37;100554.38;;;12.99;42.47
84932;BME280;75193;53.980;13.902;2024-02-26T03:07:03;100551.78;;;13.12;42.17
84932;BME280;75193;53.980;13.902;2024-02-26T03:09:28;100544.88;;;13.24;41.85
84932;BME280;75193;53.980;13.902;2024-02-26T03:11:54;100556.19;;;13.37;41.44
84932;BME280;75193;53.980;13.902;2024-02-26T03:14:20;100562.81;;;13.04;42.04
84932;BME280;75193;53.980;13.902;2024-02-26T03:16:45;100556.72;;;13.42;41.24
84932;BME280;75193;53.980;13.902;2024-02-26T03:19:14;100556.81;;;13.53;41.19
84932;BME280;75193;53.980;13.902;2024-02-26T03:21:39;100556.50;;;13.45;41.48
84932;BME280;75193;53.980;13.902;2024-02-26T03:24:05;100555.47;;;13.35;41.35
84932;BME280;75193;53.980;13.902;2024-02-26T03:26:31;100557.25;;;13.47;41.28
84932;BME280;75193;53.980;13.902;2024-02-26T03:28:56;100559.75;;;13.36;41.28
84932;BME280;75193;53.980;13.902;2024-02-26T03:31:22;100563.53;;;13.45;41.41
84932;BME280;75193;53.980;13.902;2024-02-26T03:33:47;100556.81;;;13.53;41.26
84932;BME280;75193;53.980;13.902;2024-02-26T03:36:13;100561.03;;;13.43;41.34
84932;BME280;75193;53.980;13.902;2024-02-26T03:38:39;100567.75;;;13.47;41.33
84932;BME280;75193;53.980;13.902;2024-02-26T03:41:04;100561.44;;;13.50;41.60
84932;BME280;75193;53.980;13.902;2024-02-26T03:43:29;100561.22;;;13.53;41.44
84932;BME280;75193;53.980;13.902;2024-02-26T03:45:55;100570.88;;;13.52;41.79
84932;BME280;75193;53.980;13.902;2024-02-26T03:48:20;100572.03;;;13.61;41.77
84932;BME280;75193;53.980;13.902;2024-02-26T03:50:46;100571.59;;;13.54;41.96
84932;BME280;75193;53.980;13.902;2024-02-26T03:53:11;100573.97;;;13.83;41.27
84932;BME280;75193;53.980;13.902;2024-02-26T03:55:38;100576.59;;;13.83;41.28
84932;BME280;75193;53.980;13.902;2024-02-26T03:58:03;100574.19;;;13.80;41.52
84932;BME280;75193;53.980;13.902;2024-02-26T04:00:29;100575.88;;;13.81;41.56
84932;BME280;75193;53.980;13.902;2024-02-26T04:02:55;100581.25;;;13.79;41.28
84932;BME280;75193;53.980;13.902;2024-02-26T04:05:21;100584.28;;;13.73;41.42
84932;BME280;75193;53.980;13.902;2024-02-26T04:07:46;100583.56;;;13.71;41.53
84932;BME280;75193;53.980;13.902;2024-02-26T04:10:12;100583.16;;;13.64;41.33
84932;BME280;75193;53.980;13.902;2024-02-26T04:12:39;100588.06;;;13.69;41.51
84932;BME280;75193;53.980;13.902;2024-02-26T04:15:07;100595.72;;;13.72;41.51
84932;BME280;75193;53.980;13.902;2024-02-26T04:17:33;100596.56;;;13.73;41.21
84932;BME280;75193;53.980;13.902;2024-02-26T04:19:58;100602.03;;;13.70;41.61
84932;BME280;75193;53.980;13.902;2024-02-26T04:22:24;100600.81;;;13.62;41.26
84932;BME280;75193;53.980;13.902;2024-02-26T04:24:49;100607.75;;;13.25;41.89
84932;BME280;75193;53.980;13.902;2024-02-26T04:27:15;100602.75;;;12.95;42.60
84932;BME280;75193;53.980;13.902;2024-02-26T04:29:41;100615.03;;;12.01;43.67
84932;BME280;75193;53.980;13.902;2024-02-26T04:32:06;100617.47;;;11.62;44.10
84932;BME280;75193;53.980;13.902;2024-02-26T04:34:32;100628.72;;;11.05;44.65
84932;BME280;75193;53.980;13.902;2024-02-26T04:36:57;100627.63;;;11.23;44.48
84932;BME280;75193;53.980;13.902;2024-02-26T04:39:23;100626.50;;;11.28;44.78
84932;BME280;75193;53.980;13.902;2024-02-26T04:41:48;100617.09;;;11.68;44.55
84932;BME280;75193;53.980;13.902;2024-02-26T04:44:13;100620.38;;;12.27;43.32
84932;BME280;75193;53.980;13.902;2024-02-26T04:46:39;100627.72;;;12.07;43.95
84932;BME280;75193;53.980;13.902;2024-02-26T04:49:04;100628.84;;;12.03;44.47
84932;BME280;75193;53.980;13.902;2024-02-26T04:51:29;100622.09;;;12.28;44.20
84932;BME280;75193;53.980;13.902;2024-02-26T04:53:55;100628.84;;;12.44;44.64
84932;BME280;75193;53.980;13.902;2024-02-26T04:56:21;100624.75;;;12.80;43.34
84932;BME280;75193;53.980;13.902;2024-02-26T04:58:47;100628.84;;;12.71;43.80
84932;BME280;75193;53.980;13.902;2024-02-26T05:01:13;100628.19;;;12.68;43.77
84932;BME280;75193;53.980;13.902;2024-02-26T05:03:38;100630.78;;;12.95;43.36
84932;BME280;75193;53.980;13.902;2024-02-26T05:06:05;100642.03;;;13.10;42.92
84932;BME280;75193;53.980;13.902;2024-02-26T05:08:30;100641.28;;;13.08;43.08
84932;BME280;75193;53.980;13.902;2024-02-26T05:10:56;100637.09;;;13.05;42.80
84932;BME280;75193;53.980;13.902;2024-02-26T05:13:21;100644.53;;;12.98;42.91
84932;BME280;75193;53.980;13.902;2024-02-26T05:15:47;100655.59;;;12.77;42.83
84932;BME280;75193;53.980;13.902;2024-02-26T05:18:15;100654.78;;;12.89;42.39
84932;BME280;75193;53.980;13.902;2024-02-26T05:20:40;100653.59;;;12.67;42.52
84932;BME280;75193;53.980;13.902;2024-02-26T05:23:06;100656.00;;;11.74;44.17
84932;BME280;75193;53.980;13.902;2024-02-26T05:25:32;100658.19;;;12.23;43.30
84932;BME280;75193;53.980;13.902;2024-02-26T05:27:57;100655.97;;;12.17;43.14
84932;BME280;75193;53.980;13.902;2024-02-26T05:30:23;100659.84;;;12.38;41.93
84932;BME280;75193;53.980;13.902;2024-02-26T05:32:48;100656.63;;;12.20;42.26
84932;BME280;75193;53.980;13.902;2024-02-26T05:35:14;100664.78;;;12.16;42.67
84932;BME280;75193;53.980;13.902;2024-02-26T05:37:40;100663.75;;;11.90;43.49
84932;BME280;75193;53.980;13.902;2024-02-26T05:40:06;100679.84;;;10.95;45.99
84932;BME280;75193;53.980;13.902;2024-02-26T05:42:31;100681.78;;;12.08;44.47
84932;BME280;75193;53.980;13.902;2024-02-26T05:44:57;100692.31;;;12.50;43.35
84932;BME280;75193;53.980;13.902;2024-02-26T05:47:23;100692.94;;;12.53;42.87
84932;BME280;75193;53.980;13.902;2024-02-26T05:49:48;100691.97;;;12.68;42.42
84932;BME280;75193;53.980;13.902;2024-02-26T05:52:14;100708.97;;;12.49;42.47
84932;BME280;75193;53.980;13.902;2024-02-26T05:54:39;100710.09;;;12.44;42.19
84932;BME280;75193;53.980;13.902;2024-02-26T05:57:05;100716.66;;;12.37;42.26
84932;BME280;75193;53.980;13.902;2024-02-26T05:59:30;100716.09;;;12.47;41.99
84932;BME280;75193;53.980;13.902;2024-02-26T06:01:56;100722.41;;;12.57;41.61
84932;BME280;75193;53.980;13.902;2024-02-26T06:04:21;100718.78;;;12.45;41.93
84932;BME280;75193;53.980;13.902;2024-02-26T06:06:47;100727.59;;;12.44;41.79
84932;BME280;75193;53.980;13.902;2024-02-26T06:09:12;100730.94;;;12.60;41.52
84932;BME280;75193;53.980;13.902;2024-02-26T06:11:38;100732.94;;;12.42;42.00
84932;BME280;75193;53.980;13.902;2024-02-26T06:14:04;100732.38;;;12.52;42.26
84932;BME280;75193;53.980;13.902;2024-02-26T06:16:29;100733.84;;;13.10;41.48
84932;BME280;75193;53.980;13.902;2024-02-26T06:18:54;100747.00;;;13.49;40.80
84932;BME280;75193;53.980;13.902;2024-02-26T06:21:20;100748.78;;;13.74;40.70
84932;BME280;75193;53.980;13.902;2024-02-26T06:23:45;100748.41;;;13.80;40.44
84932;BME280;75193;53.980;13.902;2024-02-26T06:26:11;100747.13;;;13.73;40.58
84932;BME280;75193;53.980;13.902;2024-02-26T06:28:36;100748.69;;;14.01;40.23
84932;BME280;75193;53.980;13.902;2024-02-26T06:31:05;100756.59;;;14.01;40.27
84932;BME280;75193;53.980;13.902;2024-02-26T06:33:31;100752.47;;;14.22;40.04
84932;BME280;75193;53.980;13.902;2024-02-26T06:35:56;100745.19;;;14.39;40.31
84932;BME280;75193;53.980;13.902;2024-02-26T06:38:21;100742.56;;;14.75;39.55
84932;BME280;75193;53.980;13.902;2024-02-26T06:40:47;100745.53;;;15.19;39.34
84932;BME280;75193;53.980;13.902;2024-02-26T06:43:12;100754.59;;;15.14;40.31
84932;BME280;75193;53.980;13.902;2024-02-26T06:45:38;100750.53;;;15.45;40.06
84932;BME280;75193;53.980;13.902;2024-02-26T06:48:03;100761.22;;;15.55;39.55
84932;BME280;75193;53.980;13.902;2024-02-26T06:50:29;100763.53;;;14.64;40.56
84932;BME280;75193;53.980;13.902;2024-02-26T06:52:54;100779.38;;;14.26;41.83
84932;BME280;75193;53.980;13.902;2024-02-26T06:55:20;100777.72;;;14.74;41.13
84932;BME280;75193;53.980;13.902;2024-02-26T06:57:45;100778.34;;;14.78;41.33
84932;BME280;75193;53.980;13.902;2024-02-26T07:00:11;100772.53;;;15.09;40.80
84932;BME280;75193;53.980;13.902;2024-02-26T07:02:42;100776.75;;;15.12;40.57
84932;BME280;75193;53.980;13.902;2024-02-26T07:05:08;100785.56;;;14.87;41.99
84932;BME280;75193;53.980;13.902;2024-02-26T07:07:33;100790.84;;;15.11;41.37
84932;BME280;75193;53.980;13.902;2024-02-26T07:09:59;100781.84;;;15.37;41.04
84932;BME280;75193;53.980;13.902;2024-02-26T07:12:25;100778.09;;;15.53;40.61
84932;BME280;75193;53.980;13.902;2024-02-26T07:14:50;100776.25;;;15.42;40.86
84932;BME280;75193;53.980;13.902;2024-02-26T07:17:17;100781.44;;;15.55;40.56
84932;BME280;75193;53.980;13.902;2024-02-26T07:19:46;100785.47;;;15.71;40.62
84932;BME280;75193;53.980;13.902;2024-02-26T07:22:11;100788.94;;;15.72;40.72
84932;BME280;75193;53.980;13.902;2024-02-26T07:24:36;100798.91;;;15.80;40.82
84932;BME280;75193;53.980;13.902;2024-02-26T07:27:02;100792.72;;;16.03;40.85
84932;BME280;75193;53.980;13.902;2024-02-26T07:29:27;100798.44;;;15.86;41.28
84932;BME280;75193;53.980;13.902;2024-02-26T07:31:53;100796.19;;;16.03;40.88
84932;BME280;75193;53.980;13.902;2024-02-26T07:34:19;100791.06;;;16.02;41.29
84932;BME280;75193;53.980;13.902;2024-02-26T07:36:44;100795.50;;;16.24;40.72
84932;BME280;75193;53.980;13.902;2024-02-26T07:39:09;100799.16;;;15.99;41.51
84932;BME280;75193;53.980;13.902;2024-02-26T07:41:35;100798.84;;;16.15;41.10
84932;BME280;75193;53.980;13.902;2024-02-26T07:44:00;100805.81;;;16.38;40.95
84932;BME280;75193;53.980;13.902;2024-02-26T07:46:26;100804.59;;;16.31;41.35
84932;BME280;75193;53.980;13.902;2024-02-26T07:48:51;100805.31;;;16.33;41.44
84932;BME280;75193;53.980;13.902;2024-02-26T07:51:17;100805.44;;;16.31;41.94
84932;BME280;75193;53.980;13.902;2024-02-26T07:53:42;100806.78;;;16.37;41.64
84932;BME280;75193;53.980;13.902;2024-02-26T07:56:08;100800.91;;;16.67;41.47
84932;BME280;75193;53.980;13.902;2024-02-26T07:58:34;100803.34;;;17.13;40.88
84932;BME280;75193;53.980;13.902;2024-02-26T08:00:59;100813.84;;;17.24;40.92
84932;BME280;75193;53.980;13.902;2024-02-26T08:03:25;100810.69;;;16.87;42.20
84932;BME280;75193;53.980;13.902;2024-02-26T08:05:51;100813.47;;;17.29;41.25
84932;BME280;75193;53.980;13.902;2024-02-26T08:08:18;100809.38;;;17.68;40.67
84932;BME280;75193;53.980;13.902;2024-02-26T08:10:43;100812.56;;;17.51;41.13
84932;BME280;75193;53.980;13.902;2024-02-26T08:13:09;100815.25;;;17.61;41.10
84932;BME280;75193;53.980;13.902;2024-02-26T08:15:35;100810.22;;;17.58;41.08
84932;BME280;75193;53.980;13.902;2024-02-26T08:18:03;100825.09;;;17.70;41.39
84932;BME280;75193;53.980;13.902;2024-02-26T08:20:29;100825.81;;;17.72;41.41
84932;BME280;75193;53.980;13.902;2024-02-26T08:22:55;100824.06;;;17.82;41.47
84932;BME280;75193;53.980;13.902;2024-02-26T08:25:21;100835.34;;;18.05;41.17
84932;BME280;75193;53.980;13.902;2024-02-26T08:27:47;100832.66;;;17.63;42.46
84932;BME280;75193;53.980;13.902;2024-02-26T08:30:14;100827.22;;;17.76;42.36
84932;BME280;75193;53.980;13.902;2024-02-26T08:32:48;100829.81;;;18.38;41.02
84932;BME280;75193;53.980;13.902;2024-02-26T08:35:13;100832.69;;;18.26;41.12
84932;BME280;75193;53.980;13.902;2024-02-26T08:37:39;100830.00;;;18.46;41.49
84932;BME280;75193;53.980;13.902;2024-02-26T08:40:06;100829.63;;;18.30;42.09
84932;BME280;75193;53.980;13.902;2024-02-26T08:42:32;100833.69;;;17.08;44.40
84932;BME280;75193;53.980;13.902;2024-02-26T08:44:57;100836.19;;;17.52;43.74
84932;BME280;75193;53.980;13.902;2024-02-26T08:47:25;100832.38;;;17.13;44.37
84932;BME280;75193;53.980;13.902;2024-02-26T08:50:13;100835.13;;;17.44;43.94
84932;BME280;75193;53.980;13.902;2024-02-26T08:52:39;100837.53;;;17.79;42.97
84932;BME280;75193;53.980;13.902;2024-02-26T08:55:05;100835.19;;;18.58;41.32
84932;BME280;75193;53.980;13.902;2024-02-26T08:57:31;100835.34;;;18.26;41.70
84932;BME280;75193;53.980;13.902;2024-02-26T08:59:59;100841.00;;;18.21;41.68
84932;BME280;75193;53.980;13.902;2024-02-26T09:02:25;100841.75;;;18.33;42.14
84932;BME280;75193;53.980;13.902;2024-02-26T09:04:51;100842.47;;;18.04;42.83
84932;BME280;75193;53.980;13.902;2024-02-26T09:07:19;100844.06;;;18.47;41.86
84932;BME280;75193;53.980;13.902;2024-02-26T09:09:44;100842.69;;;18.83;41.54
84932;BME280;75193;53.980;13.902;2024-02-26T09:12:10;100842.22;;;18.68;41.83
84932;BME280;75193;53.980;13.902;2024-02-26T09:14:35;100853.84;;;18.26;43.35
84932;BME280;75193;53.980;13.902;2024-02-26T09:17:01;100858.38;;;18.14;43.66
84932;BME280;75193;53.980;13.902;2024-02-26T09:19:26;100855.28;;;18.60;42.49
84932;BME280;75193;53.980;13.902;2024-02-26T09:21:53;100848.81;;;19.62;40.50
84932;BME280;75193;53.980;13.902;2024-02-26T09:24:23;100865.66;;;19.23;40.88
84932;BME280;75193;53.980;13.902;2024-02-26T09:26:48;100855.38;;;18.80;41.77
84932;BME280;75193;53.980;13.902;2024-02-26T09:29:14;100861.44;;;18.19;42.54
84932;BME280;75193;53.980;13.902;2024-02-26T09:31:39;100861.47;;;17.98;42.36
84932;BME280;75193;53.980;13.902;2024-02-26T09:34:07;100866.47;;;18.64;41.07
84932;BME280;75193;53.980;13.902;2024-02-26T09:36:33;100862.47;;;18.49;41.50
84932;BME280;75193;53.980;13.902;2024-02-26T09:38:58;100870.25;;;18.71;40.32
84932;BME280;75193;53.980;13.902;2024-02-26T09:41:27;100865.06;;;18.69;39.67
84932;BME280;75193;53.980;13.902;2024-02-26T09:43:56;100876.50;;;17.66;42.07
84932;BME280;75193;53.980;13.902;2024-02-26T09:46:25;100871.59;;;17.93;41.28
84932;BME280;75193;53.980;13.902;2024-02-26T09:48:51;100875.75;;;18.37;40.77
84932;BME280;75193;53.980;13.902;2024-02-26T09:51:16;100877.63;;;17.84;41.50
84932;BME280;75193;53.980;13.902;2024-02-26T09:53:44;100868.25;;;17.91;41.74
84932;BME280;75193;53.980;13.902;2024-02-26T09:56:13;100872.13;;;18.08;41.27
84932;BME280;75193;53.980;13.902;2024-02-26T09:58:41;100874.03;;;17.53;42.11
84932;BME280;75193;53.980;13.902;2024-02-26T10:01:11;100875.47;;;17.57;41.90
84932;BME280;75193;53.980;13.902;2024-02-26T10:03:39;100873.38;;;17.29;41.91
84932;BME280;75193;53.980;13.902;2024-02-26T10:06:07;100879.31;;;17.53;41.57
84932;BME280;75193;53.980;13.902;2024-02-26T10:08:34;100877.22;;;17.24;41.55
84932;BME280;75193;53.980;13.902;2024-02-26T10:11:00;100873.19;;;17.09;41.92
84932;BME280;75193;53.980;13.902;2024-02-26T10:13:26;100860.72;;;17.11;41.23
84932;BME280;75193;53.980;13.902;2024-02-26T10:15:52;100878.31;;;17.33;41.16
84932;BME280;75193;53.980;13.902;2024-02-26T10:18:18;100874.06;;;16.99;41.44
84932;BME280;75193;53.980;13.902;2024-02-26T10:21:04;100880.13;;;17.21;41.62
84932;BME280;75193;53.980;13.902;2024-02-26T10:23:30;100885.84;;;18.02;39.81
84932;BME280;75193;53.980;13.902;2024-02-26T10:25:55;100892.94;;;17.80;40.07
84932;BME280;75193;53.980;13.902;2024-02-26T10:28:22;100886.31;;;18.28;39.54
84932;BME280;75193;53.980;13.902;2024-02-26T10:30:48;100890.81;;;17.74;40.05
84932;BME280;75193;53.980;13.902;2024-02-26T10:33:14;100893.66;;;18.24;39.62
84932;BME280;75193;53.980;13.902;2024-02-26T10:35:45;100889.47;;;18.73;38.79
84932;BME280;75193;53.980;13.902;2024-02-26T10:38:10;100894.38;;;18.77;39.58
84932;BME280;75193;53.980;13.902;2024-02-26T10:40:36;100893.09;;;18.51;38.64
84932;BME280;75193;53.980;13.902;2024-02-26T10:43:02;100892.19;;;18.62;38.69
84932;BME280;75193;53.980;13.902;2024-02-26T10:45:27;100883.06;;;19.25;38.17
84932;BME280;75193;53.980;13.902;2024-02-26T10:47:53;100890.44;;;19.02;37.81
84932;BME280;75193;53.980;13.902;2024-02-26T10:50:19;100896.66;;;18.92;37.99
84932;BME280;75193;53.980;13.902;2024-02-26T10:52:45;100893.25;;;19.30;38.18
84932;BME280;75193;53.980;13.902;2024-02-26T10:55:15;100903.13;;;18.48;38.45
84932;BME280;75193;53.980;13.902;2024-02-26T10:57:45;100903.34;;;18.96;37.12
84932;BME280;75193;53.980;13.902;2024-02-26T11:00:10;100896.69;;;19.61;36.31
84932;BME280;75193;53.980;13.902;2024-02-26T11:02:40;100893.88;;;18.93;36.85
84932;BME280;75193;53.980;13.902;2024-02-26T11:05:06;100900.19;;;19.02;37.13
84932;BME280;75193;53.980;13.902;2024-02-26T11:07:32;100902.97;;;19.00;36.83
84932;BME280;75193;53.980;13.902;2024-02-26T11:10:00;100906.69;;;17.95;38.27
84932;BME280;75193;53.980;13.902;2024-02-26T11:12:27;100905.34;;;18.63;36.41
84932;BME280;75193;53.980;13.902;2024-02-26T11:14:54;100904.97;;;18.05;37.93
84932;BME280;75193;53.980;13.902;2024-02-26T11:17:26;100909.06;;;18.19;38.46
84932;BME280;75193;53.980;13.902;2024-02-26T11:19:55;100909.59;;;17.92;38.40
84932;BME280;75193;53.980;13.902;2024-02-26T11:22:21;100906.09;;;18.33;38.06
84932;BME280;75193;53.980;13.902;2024-02-26T11:24:48;100914.41;;;18.50;37.88
84932;BME280;75193;53.980;13.902;2024-02-26T11:27:16;100917.34;;;18.05;38.55
84932;BME280;75193;53.980;13.902;2024-02-26T11:29:47;100915.09;;;17.68;39.38
84932;BME280;75193;53.980;13.902;2024-02-26T11:32:15;100916.16;;;18.60;37.67
84932;BME280;75193;53.980;13.902;2024-02-26T11:34:41;100921.59;;;17.96;38.56
84932;BME280;75193;53.980;13.902;2024-02-26T11:37:11;100911.84;;;18.17;38.30
84932;BME280;75193;53.980;13.902;2024-02-26T11:39:37;100920.28;;;18.53;37.80
84932;BME280;75193;53.980;13.902;2024-02-26T11:42:08;100925.28;;;18.26;38.03
84932;BME280;75193;53.980;13.902;2024-02-26T11:44:34;100930.84;;;18.23;37.88
84932;BME280;75193;53.980;13.902;2024-02-26T11:47:20;100938.66;;;18.24;37.69
84932;BME280;75193;53.980;13.902;2024-02-26T11:49:46;100928.94;;;18.34;38.26
84932;BME280;75193;53.980;13.902;2024-02-26T11:52:13;100933.56;;;18.00;38.43
84932;BME280;75193;53.980;13.902;2024-02-26T11:54:46;100935.41;;;18.41;38.17
84932;BME280;75193;53.980;13.902;2024-02-26T12:00:16;100933.94;;;18.58;37.74
84932;BME280;75193;53.980;13.902;2024-02-26T12:02:49;100937.94;;;18.22;37.95
84932;BME280;75193;53.980;13.902;2024-02-26T12:05:18;100940.75;;;18.30;37.84
84932;BME280;75193;53.980;13.902;2024-02-26T12:07:46;100943.47;;;18.82;37.11
84932;BME280;75193;53.980;13.902;2024-02-26T12:10:21;100942.25;;;18.95;37.11
84932;BME280;75193;53.980;13.902;2024-02-26T12:12:53;100946.47;;;18.77;37.38
84932;BME280;75193;53.980;13.902;2024-02-26T12:15:19;100947.47;;;18.55;37.99
84932;BME280;75193;53.980;13.902;2024-02-26T12:17:48;100950.25;;;18.33;37.86
84932;BME280;75193;53.980;13.902;2024-02-26T12:20:16;100947.66;;;18.84;37.10
84932;BME280;75193;53.980;13.902;2024-02-26T12:22:45;100943.03;;;19.17;36.71
84932;BME280;75193;53.980;13.902;2024-02-26T12:25:14;100939.28;;;18.79;37.24
84932;BME280;75193;53.980;13.902;2024-02-26T12:27:39;100944.44;;;18.39;38.07
84932;BME280;75193;53.980;13.902;2024-02-26T12:30:05;100940.44;;;18.44;37.52
84932;BME280;75193;53.980;13.902;2024-02-26T12:32:31;100947.59;;;18.33;37.17
84932;BME280;75193;53.980;13.902;2024-02-26T12:34:58;100945.91;;;18.53;37.16
84932;BME280;75193;53.980;13.902;2024-02-26T12:37:23;100950.19;;;18.44;37.53
84932;BME280;75193;53.980;13.902;2024-02-26T12:39:49;100948.16;;;17.95;38.12